Time;durP1;ratioP1;P1;durP2;ratioP2;P2;SDS_P1;SDS_P2;PMS_P1;PMS_P2;Temp;Humidity;BMP_temperature;BMP_pressure;BME280_temperature;BME280_humidity;BME280_pressure;Samples;Min_cycle;Max_cycle;Signal;HPM_P1;HPM_P2
2023/05/18 00:00:59;;;;;;;21.13;6.35;;;4.60;99.90;;;;;;5033089;28;20215;-63
2023/05/18 00:03:24;;;;;;;18.67;5.97;;;4.60;99.90;;;;;;5034975;28;20045;-62
2023/05/18 00:05:50;;;;;;;16.15;5.70;;;4.60;99.90;;;;;;5037737;28;20445;-62
2023/05/18 00:08:16;;;;;;;19.13;6.18;;;4.50;99.90;;;;;;5068560;28;20048;-63
2023/05/18 00:10:41;;;;;;;17.42;6.45;;;4.60;99.90;;;;;;5038654;28;20041;-62
2023/05/18 00:13:07;;;;;;;15.23;5.50;;;4.60;99.90;;;;;;5037919;28;20039;-62
2023/05/18 00:15:33;;;;;;;15.93;5.78;;;4.50;99.90;;;;;;5039664;28;20041;-62
2023/05/18 00:17:58;;;;;;;19.05;6.47;;;4.50;99.90;;;;;;5032989;28;20063;-62
2023/05/18 00:20:25;;;;;;;22.20;5.88;;;4.40;99.90;;;;;;5038629;28;20049;-62
2023/05/18 00:22:51;;;;;;;21.67;6.20;;;4.40;99.90;;;;;;5033855;28;20048;-62
2023/05/18 00:25:17;;;;;;;15.00;6.40;;;4.40;99.90;;;;;;5039697;28;20044;-62
2023/05/18 00:27:42;;;;;;;16.70;6.13;;;4.50;99.90;;;;;;5038680;28;20041;-62
2023/05/18 00:30:08;;;;;;;18.30;5.85;;;4.50;99.90;;;;;;5041034;28;20041;-62
2023/05/18 00:32:34;;;;;;;13.93;5.90;;;4.50;99.90;;;;;;5032500;28;20045;-62
2023/05/18 00:35:00;;;;;;;21.58;6.32;;;4.50;99.90;;;;;;5035543;28;20037;-62
2023/05/18 00:37:25;;;;;;;15.48;5.65;;;4.40;99.90;;;;;;5067244;28;20045;-62
2023/05/18 00:39:51;;;;;;;19.80;6.13;;;4.30;99.90;;;;;;5036277;28;20045;-63
2023/05/18 00:42:16;;;;;;;13.10;4.85;;;4.20;99.90;;;;;;5063997;28;20040;-63
2023/05/18 00:44:42;;;;;;;11.70;5.07;;;4.20;99.90;;;;;;5036474;28;20408;-62
2023/05/18 00:47:08;;;;;;;15.45;5.90;;;4.10;99.90;;;;;;5033444;28;20474;-63
2023/05/18 00:49:34;;;;;;;18.35;6.65;;;4.00;99.90;;;;;;5036280;28;20446;-62
2023/05/18 00:52:01;;;;;;;19.38;6.60;;;4.00;99.90;;;;;;5034906;28;20040;-63
2023/05/18 00:54:27;;;;;;;14.23;6.28;;;4.00;99.90;;;;;;5064406;28;20049;-63
2023/05/18 00:56:52;;;;;;;15.13;6.22;;;4.00;99.90;;;;;;5078777;28;20402;-63
2023/05/18 00:59:18;;;;;;;17.80;6.55;;;3.90;99.90;;;;;;5039555;28;20082;-62
2023/05/18 01:01:45;;;;;;;20.50;6.70;;;3.90;99.90;;;;;;5073827;28;20049;-63
2023/05/18 01:04:14;;;;;;;16.67;6.15;;;3.90;99.90;;;;;;5040925;28;20044;-63
2023/05/18 01:06:41;;;;;;;15.50;6.65;;;3.90;99.90;;;;;;5039863;28;20051;-63
2023/05/18 01:09:09;;;;;;;18.52;6.25;;;3.90;99.90;;;;;;5041414;28;20037;-62
2023/05/18 01:11:54;;;;;;;18.15;6.47;;;3.90;99.90;;;;;;5040587;28;20033;-62
2023/05/18 01:14:38;;;;;;;18.10;5.90;;;3.90;99.90;;;;;;5042607;28;20682;-62
2023/05/18 01:17:59;;;;;;;12.52;5.28;;;3.90;99.90;;;;;;5046424;28;20091;-62
2023/05/18 01:20:46;;;;;;;19.35;6.47;;;3.90;99.90;;;;;;5001398;28;20374;-62
2023/05/18 01:23:34;;;;;;;21.33;7.20;;;4.00;99.90;;;;;;5032754;28;20045;-62
2023/05/18 01:26:16;;;;;;;19.92;6.43;;;4.00;99.90;;;;;;5045590;28;20045;-62
2023/05/18 01:28:45;;;;;;;21.90;6.95;;;4.00;99.90;;;;;;5046394;28;20130;-62
2023/05/18 01:31:12;;;;;;;17.30;6.75;;;4.00;99.90;;;;;;5043836;28;20043;-62
2023/05/18 01:33:37;;;;;;;15.57;6.13;;;4.00;99.90;;;;;;5045122;28;20052;-62
2023/05/18 01:36:03;;;;;;;19.40;6.60;;;4.00;99.90;;;;;;5044806;28;20468;-63
2023/05/18 01:38:29;;;;;;;17.88;5.68;;;4.10;99.90;;;;;;5077598;28;20499;-62
2023/05/18 01:41:10;;;;;;;10.07;5.75;;;4.00;99.90;;;;;;5046269;28;20041;-62
2023/05/18 01:43:39;;;;;;;13.90;5.45;;;3.90;99.90;;;;;;5047109;28;20378;-63
2023/05/18 01:46:16;;;;;;;14.63;5.25;;;3.80;99.90;;;;;;5042696;28;20029;-62
2023/05/18 01:48:47;;;;;;;11.95;5.68;;;3.70;99.90;;;;;;5047815;28;20048;-62
2023/05/18 01:51:15;;;;;;;17.73;6.03;;;3.60;99.90;;;;;;5047603;28;20037;-63
2023/05/18 01:53:50;;;;;;;12.35;5.68;;;3.60;99.90;;;;;;5048334;28;20040;-63
2023/05/18 01:56:16;;;;;;;19.23;6.63;;;3.50;99.90;;;;;;5044442;28;20396;-63
2023/05/18 01:58:43;;;;;;;14.57;6.18;;;3.60;99.90;;;;;;5044132;28;20033;-63
2023/05/18 02:01:09;;;;;;;13.73;6.55;;;3.60;99.90;;;;;;5044949;28;20369;-62
2023/05/18 02:03:34;;;;;;;15.70;6.40;;;3.60;99.90;;;;;;5045311;28;20026;-62
2023/05/18 02:06:00;;;;;;;16.23;6.22;;;3.60;99.90;;;;;;5071258;28;20060;-62
2023/05/18 02:08:25;;;;;;;13.98;5.80;;;3.50;99.90;;;;;;5072935;28;20041;-63
2023/05/18 02:10:51;;;;;;;18.98;6.35;;;3.40;99.90;;;;;;5041675;28;20029;-62
2023/05/18 02:13:17;;;;;;;17.08;6.07;;;3.40;99.90;;;;;;5045837;28;20075;-62
2023/05/18 02:15:43;;;;;;;13.77;5.85;;;3.40;99.90;;;;;;5043998;28;20064;-62
2023/05/18 02:18:09;;;;;;;10.93;5.40;;;3.50;99.90;;;;;;5045225;28;20138;-62
2023/05/18 02:20:36;;;;;;;15.68;6.85;;;3.50;99.90;;;;;;5043263;28;20166;-62
2023/05/18 02:23:02;;;;;;;18.40;6.00;;;3.60;99.90;;;;;;5043727;28;20484;-62
2023/05/18 02:25:28;;;;;;;19.15;6.38;;;3.60;99.90;;;;;;5079367;28;20086;-62
2023/05/18 02:27:53;;;;;;;15.63;5.78;;;3.60;99.90;;;;;;5042230;28;20128;-62
2023/05/18 02:30:19;;;;;;;19.13;7.18;;;3.60;99.90;;;;;;5076541;28;20063;-63
2023/05/18 02:32:45;;;;;;;16.45;7.50;;;3.60;99.90;;;;;;5050845;28;20091;-62
2023/05/18 02:35:12;;;;;;;19.92;7.80;;;3.60;99.90;;;;;;5044935;28;20041;-62
2023/05/18 02:37:42;;;;;;;16.50;7.18;;;3.60;99.90;;;;;;5072195;28;20048;-62
2023/05/18 02:40:13;;;;;;;17.48;7.45;;;3.60;99.90;;;;;;5041992;28;20033;-63
2023/05/18 02:42:38;;;;;;;21.13;7.20;;;3.50;99.90;;;;;;5076452;28;20052;-63
2023/05/18 02:45:04;;;;;;;21.90;7.45;;;3.50;99.90;;;;;;5040543;28;20041;-63
2023/05/18 02:47:30;;;;;;;21.85;7.22;;;3.40;99.90;;;;;;5044194;28;20076;-63
2023/05/18 02:49:56;;;;;;;15.73;6.93;;;3.40;99.90;;;;;;5058570;28;20110;-62
2023/05/18 02:52:21;;;;;;;17.90;6.95;;;3.40;99.90;;;;;;5039352;28;20119;-63
2023/05/18 02:54:47;;;;;;;20.67;7.32;;;3.30;99.90;;;;;;5043790;28;20051;-62
2023/05/18 02:57:12;;;;;;;13.35;5.65;;;3.30;99.90;;;;;;5043143;28;20041;-62
2023/05/18 02:59:38;;;;;;;12.98;5.70;;;3.30;99.90;;;;;;5054701;28;20048;-63
2023/05/18 03:02:04;;;;;;;14.77;5.50;;;3.30;99.90;;;;;;5043825;28;20044;-62
2023/05/18 03:04:30;;;;;;;14.02;6.30;;;3.30;99.90;;;;;;5044752;28;20537;-62
2023/05/18 03:06:57;;;;;;;21.02;6.82;;;3.30;99.90;;;;;;5040624;28;20037;-62
2023/05/18 03:09:23;;;;;;;22.27;8.13;;;3.30;99.90;;;;;;5077849;28;21175;-62
2023/05/18 03:11:50;;;;;;;11.98;5.90;;;3.40;99.90;;;;;;5044585;28;20048;-63
2023/05/18 03:14:16;;;;;;;10.77;4.15;;;3.40;99.90;;;;;;5044977;28;20060;-62
2023/05/18 03:16:41;;;;;;;9.27;4.80;;;3.40;99.90;;;;;;5076218;28;20033;-62
2023/05/18 03:19:07;;;;;;;16.98;6.03;;;3.30;99.90;;;;;;5037220;28;20762;-62
2023/05/18 03:21:34;;;;;;;9.35;3.80;;;3.30;99.90;;;;;;5070736;28;20083;-63
2023/05/18 03:24:01;;;;;;;5.85;3.38;;;3.40;99.90;;;;;;5044333;28;20513;-63
2023/05/18 03:26:29;;;;;;;15.63;5.05;;;3.30;99.90;;;;;;5038816;28;20045;-63
2023/05/18 03:28:56;;;;;;;15.43;5.60;;;3.20;99.90;;;;;;5072112;28;20159;-62
2023/05/18 03:31:21;;;;;;;12.07;5.35;;;3.20;99.90;;;;;;5044115;28;20041;-63
2023/05/18 03:33:47;;;;;;;17.15;5.68;;;3.30;99.90;;;;;;5043128;28;20719;-63
2023/05/18 03:36:13;;;;;;;15.98;6.25;;;3.20;99.90;;;;;;5038395;28;20387;-63
2023/05/18 03:38:40;;;;;;;15.75;6.30;;;3.30;99.90;;;;;;5037237;28;20037;-63
2023/05/18 03:41:06;;;;;;;11.23;5.22;;;3.30;99.90;;;;;;5074426;28;20045;-63
2023/05/18 03:43:31;;;;;;;11.48;5.53;;;3.30;99.90;;;;;;5037950;28;20390;-63
2023/05/18 03:45:57;;;;;;;16.95;6.80;;;3.30;99.90;;;;;;5039410;28;20063;-63
2023/05/18 03:48:23;;;;;;;14.80;6.22;;;3.30;99.90;;;;;;5039235;28;20064;-63
2023/05/18 03:50:49;;;;;;;11.40;5.00;;;3.40;99.90;;;;;;5036502;28;20420;-62
2023/05/18 03:53:17;;;;;;;12.90;5.40;;;3.40;99.90;;;;;;5037629;28;20119;-63
2023/05/18 03:55:44;;;;;;;13.68;5.30;;;3.40;99.90;;;;;;5041914;28;20041;-63
2023/05/18 03:58:09;;;;;;;20.02;6.85;;;3.50;99.90;;;;;;5072801;28;20446;-63
2023/05/18 04:00:35;;;;;;;14.38;5.82;;;3.50;99.90;;;;;;5071655;28;20037;-63
2023/05/18 04:03:02;;;;;;;16.73;6.38;;;3.50;99.90;;;;;;5070176;28;20498;-63
2023/05/18 04:05:27;;;;;;;15.50;6.40;;;3.60;99.90;;;;;;5074084;28;20511;-63
2023/05/18 04:07:56;;;;;;;13.18;5.47;;;3.60;99.90;;;;;;5040166;28;20037;-63
2023/05/18 04:10:22;;;;;;;13.55;5.93;;;3.60;99.90;;;;;;5042639;28;20123;-63
2023/05/18 04:12:48;;;;;;;15.00;6.22;;;3.60;99.90;;;;;;5035917;28;20618;-63
2023/05/18 04:15:14;;;;;;;18.33;6.70;;;3.60;99.90;;;;;;5073876;28;20037;-63
2023/05/18 04:17:44;;;;;;;20.20;7.13;;;3.60;99.90;;;;;;5041799;28;20507;-63
2023/05/18 04:20:12;;;;;;;17.40;6.63;;;3.70;99.90;;;;;;5076588;28;20049;-63
2023/05/18 04:22:45;;;;;;;21.67;7.53;;;3.70;99.90;;;;;;5069820;28;20400;-63
2023/05/18 04:25:11;;;;;;;24.25;7.35;;;3.70;99.90;;;;;;5039365;28;20692;-63
2023/05/18 04:27:38;;;;;;;13.10;6.70;;;3.70;99.90;;;;;;5039966;28;20041;-63
2023/05/18 04:30:07;;;;;;;16.85;6.88;;;3.60;99.90;;;;;;5041752;28;20032;-63
2023/05/18 04:32:35;;;;;;;18.83;7.18;;;3.70;99.90;;;;;;5041323;28;20045;-63
2023/05/18 04:35:02;;;;;;;17.52;7.57;;;3.70;99.90;;;;;;5044116;28;20548;-63
2023/05/18 04:37:28;;;;;;;15.27;7.03;;;3.70;99.90;;;;;;5067148;28;20511;-63
2023/05/18 04:39:54;;;;;;;20.42;7.10;;;3.70;99.90;;;;;;5035195;28;20048;-63
2023/05/18 04:42:19;;;;;;;18.83;7.70;;;3.70;99.90;;;;;;5040772;28;20040;-63
2023/05/18 04:44:47;;;;;;;17.85;8.02;;;3.70;99.90;;;;;;5043530;28;20445;-63
2023/05/18 04:47:13;;;;;;;20.77;8.13;;;3.80;99.90;;;;;;5038115;28;20033;-63
2023/05/18 04:49:38;;;;;;;24.25;7.03;;;3.80;99.90;;;;;;5032194;28;20044;-63
2023/05/18 04:52:06;;;;;;;18.02;7.13;;;3.90;99.90;;;;;;5037445;28;20095;-63
2023/05/18 04:54:32;;;;;;;18.17;7.45;;;3.90;99.90;;;;;;5040365;28;20049;-63
2023/05/18 04:56:58;;;;;;;15.00;6.30;;;3.90;99.90;;;;;;5037037;28;20075;-63
2023/05/18 04:59:25;;;;;;;17.63;7.15;;;4.00;99.90;;;;;;5039180;28;20045;-63
2023/05/18 05:01:52;;;;;;;15.23;7.03;;;4.00;99.90;;;;;;5068329;28;20683;-63
2023/05/18 05:04:21;;;;;;;18.45;7.85;;;4.00;99.90;;;;;;5038855;28;20041;-63
2023/05/18 05:06:47;;;;;;;19.95;8.00;;;4.00;99.90;;;;;;5069030;28;20044;-63
2023/05/18 05:09:13;;;;;;;20.05;8.80;;;4.10;99.90;;;;;;5039649;28;20466;-63
2023/05/18 05:11:40;;;;;;;20.63;7.75;;;4.10;99.90;;;;;;5035750;28;20424;-63
2023/05/18 05:14:06;;;;;;;22.08;7.28;;;4.10;99.90;;;;;;5071818;28;20037;-63
2023/05/18 05:16:31;;;;;;;20.75;8.15;;;4.20;99.90;;;;;;5028831;28;20041;-62
2023/05/18 05:18:57;;;;;;;19.45;8.00;;;4.20;99.90;;;;;;5042488;28;20037;-63
2023/05/18 05:21:22;;;;;;;22.52;7.53;;;4.30;99.90;;;;;;5078038;28;20492;-63
2023/05/18 05:23:48;;;;;;;19.05;7.63;;;4.40;99.90;;;;;;5045024;28;20484;-63
2023/05/18 05:26:13;;;;;;;19.38;8.00;;;4.50;99.90;;;;;;5046575;28;20104;-63
2023/05/18 05:28:39;;;;;;;19.40;8.52;;;4.60;99.90;;;;;;5046646;28;20049;-63
2023/05/18 05:31:05;;;;;;;26.25;8.85;;;4.60;99.90;;;;;;5045925;28;20060;-63
2023/05/18 05:33:31;;;;;;;25.42;8.80;;;4.70;99.90;;;;;;5044519;28;20033;-63
2023/05/18 05:35:57;;;;;;;25.02;8.75;;;4.80;99.90;;;;;;5074607;28;20479;-63
2023/05/18 05:38:22;;;;;;;22.15;8.77;;;4.90;99.90;;;;;;5038603;28;20053;-63
2023/05/18 05:40:48;;;;;;;19.75;9.13;;;5.00;99.90;;;;;;5058041;28;20029;-63
2023/05/18 05:43:13;;;;;;;23.02;8.85;;;5.00;99.90;;;;;;5039254;28;20040;-63
2023/05/18 05:45:39;;;;;;;26.33;9.52;;;5.10;99.90;;;;;;5043577;28;20092;-63
2023/05/18 05:48:05;;;;;;;21.92;8.82;;;5.20;99.90;;;;;;5041411;28;20128;-63
2023/05/18 05:50:31;;;;;;;20.00;9.07;;;5.30;99.90;;;;;;5042429;28;20082;-63
2023/05/18 05:52:57;;;;;;;25.45;8.95;;;5.50;99.90;;;;;;5038889;28;20468;-63
2023/05/18 05:55:23;;;;;;;18.60;9.20;;;5.60;99.90;;;;;;5075793;28;20098;-63
2023/05/18 05:57:48;;;;;;;22.25;9.25;;;5.80;99.90;;;;;;5035574;28;20045;-63
2023/05/18 06:00:14;;;;;;;22.40;9.20;;;6.00;99.90;;;;;;5041920;28;20037;-63
2023/05/18 06:02:39;;;;;;;24.42;9.32;;;6.20;99.90;;;;;;5042830;28;20483;-63
2023/05/18 06:05:06;;;;;;;22.45;8.73;;;6.40;99.90;;;;;;5046907;28;20036;-63
2023/05/18 06:07:32;;;;;;;22.65;9.38;;;6.50;99.90;;;;;;5043272;28;20056;-63
2023/05/18 06:09:57;;;;;;;27.02;9.27;;;6.70;99.90;;;;;;5044044;28;20059;-63
2023/05/18 06:12:23;;;;;;;25.98;8.93;;;7.00;99.90;;;;;;5076791;28;20064;-63
2023/05/18 06:14:51;;;;;;;28.17;9.07;;;7.20;99.90;;;;;;5044709;28;20462;-63
2023/05/18 06:17:17;;;;;;;22.63;8.43;;;7.40;99.90;;;;;;5039084;28;20377;-63
2023/05/18 06:19:42;;;;;;;24.30;8.13;;;7.60;99.90;;;;;;5075519;28;20045;-63
2023/05/18 06:22:08;;;;;;;23.90;8.27;;;7.80;99.90;;;;;;5039538;28;20060;-63
2023/05/18 06:24:33;;;;;;;19.65;7.60;;;8.00;99.90;;;;;;5074393;28;20123;-63
2023/05/18 06:26:59;;;;;;;25.05;8.00;;;8.10;99.90;;;;;;5041842;28;20068;-63
2023/05/18 06:29:24;;;;;;;16.90;7.22;;;8.30;99.90;;;;;;5070489;28;20047;-64
2023/05/18 06:31:50;;;;;;;18.70;7.75;;;8.50;99.90;;;;;;5020778;28;20130;-63
2023/05/18 06:34:16;;;;;;;18.20;6.75;;;8.70;99.90;;;;;;5074154;28;20091;-62
2023/05/18 06:36:41;;;;;;;14.23;6.30;;;8.90;99.90;;;;;;5076327;28;20041;-63
2023/05/18 06:39:07;;;;;;;16.27;6.10;;;9.00;99.90;;;;;;5073254;28;20795;-63
2023/05/18 06:41:33;;;;;;;20.42;6.57;;;9.20;99.90;;;;;;5043336;28;20044;-61
2023/05/18 06:44:00;;;;;;;20.60;6.38;;;9.30;99.90;;;;;;5039363;28;20127;-62
2023/05/18 06:46:26;;;;;;;21.17;6.43;;;9.50;99.90;;;;;;5043879;28;20040;-62
2023/05/18 06:48:53;;;;;;;15.38;6.20;;;9.60;99.90;;;;;;5041208;28;20037;-62
2023/05/18 06:51:19;;;;;;;21.17;6.55;;;9.80;99.90;;;;;;5047788;28;20045;-63
2023/05/18 06:53:45;;;;;;;23.27;5.85;;;9.90;99.90;;;;;;5042499;28;20092;-62
2023/05/18 06:56:11;;;;;;;23.08;5.68;;;10.00;99.90;;;;;;5044741;28;20546;-62
2023/05/18 06:58:38;;;;;;;17.83;5.10;;;10.10;99.90;;;;;;5039378;28;20491;-62
2023/05/18 07:01:04;;;;;;;15.63;5.30;;;10.20;99.90;;;;;;5041981;28;20045;-62
2023/05/18 07:03:29;;;;;;;16.73;5.10;;;10.20;99.90;;;;;;5041868;28;20037;-62
2023/05/18 07:05:55;;;;;;;16.63;4.45;;;10.30;99.90;;;;;;5037316;28;20476;-62
2023/05/18 07:08:21;;;;;;;17.65;4.50;;;10.40;99.90;;;;;;5046955;28;20124;-62
2023/05/18 07:10:46;;;;;;;15.00;4.65;;;10.50;99.90;;;;;;5039694;28;20048;-62
2023/05/18 07:13:12;;;;;;;18.65;4.95;;;10.60;99.90;;;;;;5044114;28;20521;-62
2023/05/18 07:15:38;;;;;;;17.75;4.63;;;10.60;99.90;;;;;;5041200;28;20107;-62
2023/05/18 07:18:03;;;;;;;15.70;4.82;;;10.70;99.90;;;;;;5039487;28;20048;-61
2023/05/18 07:20:29;;;;;;;15.90;4.57;;;10.80;99.90;;;;;;5043464;28;20484;-62
2023/05/18 07:22:55;;;;;;;12.95;4.82;;;10.80;99.90;;;;;;5041672;28;20033;-62
2023/05/18 07:25:21;;;;;;;17.15;5.10;;;10.80;99.90;;;;;;5074400;28;20056;-62
2023/05/18 07:27:46;;;;;;;13.00;4.90;;;10.90;99.90;;;;;;5074350;28;20041;-62
2023/05/18 07:30:12;;;;;;;20.48;5.45;;;10.90;99.90;;;;;;5042678;28;20089;-62
2023/05/18 07:32:38;;;;;;;19.13;4.63;;;10.90;99.90;;;;;;5043251;28;20044;-63
2023/05/18 07:35:04;;;;;;;15.68;4.75;;;11.00;99.90;;;;;;5038665;28;20040;-62
2023/05/18 07:37:29;;;;;;;15.23;4.88;;;11.00;99.90;;;;;;5075781;28;20475;-63
2023/05/18 07:39:55;;;;;;;23.27;4.88;;;11.10;99.90;;;;;;5044896;28;20037;-62
2023/05/18 07:42:21;;;;;;;15.15;4.10;;;11.20;99.90;;;;;;5040886;28;20410;-63
2023/05/18 07:44:46;;;;;;;15.18;4.55;;;11.30;99.90;;;;;;5044129;28;20064;-62
2023/05/18 07:47:12;;;;;;;17.20;4.82;;;11.40;99.90;;;;;;5042941;28;20045;-62
2023/05/18 07:49:38;;;;;;;15.18;4.88;;;11.40;99.90;;;;;;5041314;28;20041;-63
2023/05/18 07:52:07;;;;;;;15.02;5.25;;;11.40;99.90;;;;;;5042127;28;20049;-61
2023/05/18 07:54:33;;;;;;;10.77;4.40;;;11.40;99.90;;;;;;5040653;28;20033;-62
2023/05/18 07:56:58;;;;;;;16.92;4.50;;;11.50;99.90;;;;;;5042409;28;20123;-63
2023/05/18 07:59:24;;;;;;;15.80;5.10;;;11.40;99.90;;;;;;5042261;28;20136;-62
2023/05/18 08:01:49;;;;;;;15.70;4.65;;;11.40;99.90;;;;;;5045383;28;20052;-62
2023/05/18 08:04:15;;;;;;;18.50;4.85;;;11.40;99.90;;;;;;5040370;28;20130;-62
2023/05/18 08:06:40;;;;;;;21.15;4.72;;;11.40;99.90;;;;;;5040999;28;20033;-62
2023/05/18 08:09:06;;;;;;;17.05;4.50;;;11.50;99.90;;;;;;5039788;28;20042;-62
2023/05/18 08:11:32;;;;;;;15.18;4.75;;;11.60;99.90;;;;;;5078878;28;20149;-62
2023/05/18 08:13:58;;;;;;;15.35;4.50;;;11.60;99.90;;;;;;5038195;28;20052;-62
2023/05/18 08:16:23;;;;;;;15.02;4.90;;;11.60;99.90;;;;;;5039966;28;20037;-63
2023/05/18 08:18:49;;;;;;;16.73;4.68;;;11.50;99.90;;;;;;5035687;28;20051;-63
2023/05/18 08:21:16;;;;;;;17.98;5.03;;;11.50;99.90;;;;;;5042778;28;20064;-63
2023/05/18 08:23:41;;;;;;;13.73;4.28;;;11.60;99.90;;;;;;5042081;28;20041;-62
2023/05/18 08:26:07;;;;;;;15.40;4.15;;;11.70;99.90;;;;;;5047156;28;20477;-62
2023/05/18 08:28:33;;;;;;;16.35;4.68;;;11.80;99.90;;;;;;5042687;28;20170;-63
2023/05/18 08:30:59;;;;;;;18.27;4.60;;;11.80;99.90;;;;;;5043287;28;20048;-62
2023/05/18 08:33:25;;;;;;;20.42;4.45;;;11.80;99.90;;;;;;5047589;28;20123;-61
2023/05/18 08:35:50;;;;;;;12.68;4.75;;;11.90;99.90;;;;;;5035218;28;20064;-62
2023/05/18 08:38:16;;;;;;;14.05;4.50;;;12.00;99.90;;;;;;5046963;28;20040;-62
2023/05/18 08:41:06;;;;;;;13.40;4.25;;;12.20;99.90;;;;;;5049886;28;20075;-63
2023/05/18 08:43:36;;;;;;;12.10;3.55;;;12.10;99.90;;;;;;5038853;28;20052;-64
2023/05/18 08:46:27;;;;;;;14.70;4.32;;;12.20;99.90;;;;;;5051093;28;20049;-61
2023/05/18 08:48:54;;;;;;;12.60;4.35;;;12.30;99.90;;;;;;5041498;28;20041;-61
2023/05/18 08:51:20;;;;;;;17.10;4.03;;;12.50;99.90;;;;;;5050437;28;20072;-62
2023/05/18 08:53:53;;;;;;;12.15;3.65;;;12.60;99.90;;;;;;5048226;28;20472;-61
2023/05/18 08:56:22;;;;;;;11.90;3.67;;;12.60;99.90;;;;;;5047825;28;20123;-63
2023/05/18 08:58:49;;;;;;;15.50;3.65;;;12.70;99.90;;;;;;5077640;28;20049;-63
2023/05/18 09:01:15;;;;;;;14.80;4.07;;;12.70;99.90;;;;;;5048759;28;20037;-63
2023/05/18 09:03:41;;;;;;;13.70;4.07;;;12.80;99.90;;;;;;5039540;28;20041;-63
2023/05/18 09:06:07;;;;;;;16.20;4.30;;;12.90;99.90;;;;;;5082797;28;20044;-63
2023/05/18 09:08:33;;;;;;;12.95;4.60;;;12.90;99.90;;;;;;5041747;28;20095;-64
2023/05/18 09:11:01;;;;;;;14.45;4.50;;;12.90;99.90;;;;;;5082609;28;20072;-64
2023/05/18 09:13:28;;;;;;;14.80;4.18;;;13.10;99.90;;;;;;5038266;28;20084;-62
2023/05/18 09:15:53;;;;;;;12.38;4.28;;;13.20;99.90;;;;;;5050889;28;20041;-64
2023/05/18 09:18:19;;;;;;;17.88;4.45;;;13.30;99.90;;;;;;5044077;28;20048;-63
2023/05/18 09:20:45;;;;;;;14.60;4.10;;;13.40;99.90;;;;;;5041968;28;20072;-62
2023/05/18 09:23:15;;;;;;;17.10;4.18;;;13.50;99.90;;;;;;5042865;28;20041;-63
2023/05/18 09:25:44;;;;;;;20.00;4.82;;;13.60;99.90;;;;;;5073915;28;20041;-64
2023/05/18 09:28:13;;;;;;;8.90;4.10;;;13.70;99.90;;;;;;5031706;28;20327;-63
2023/05/18 09:30:40;;;;;;;12.55;4.07;;;13.80;99.90;;;;;;5050025;28;20048;-63
2023/05/18 09:33:17;;;;;;;12.98;4.03;;;14.00;99.90;;;;;;5037862;28;20045;-63
2023/05/18 09:35:45;;;;;;;12.85;4.40;;;14.20;99.90;;;;;;5047663;28;20076;-63
2023/05/18 09:38:14;;;;;;;13.45;4.57;;;14.10;99.90;;;;;;5051332;28;20458;-62
2023/05/18 09:40:44;;;;;;;14.43;4.40;;;14.10;99.90;;;;;;5053919;28;20049;-63
2023/05/18 09:43:10;;;;;;;14.57;4.72;;;14.00;99.90;;;;;;5048039;28;20076;-63
2023/05/18 09:45:42;;;;;;;15.20;4.28;;;14.00;99.90;;;;;;5085565;28;20440;-64
2023/05/18 09:48:08;;;;;;;13.27;4.47;;;14.00;99.90;;;;;;5080180;28;20040;-63
2023/05/18 09:50:36;;;;;;;12.85;4.38;;;14.00;99.90;;;;;;5053198;28;20029;-63
2023/05/18 09:53:05;;;;;;;12.88;4.30;;;14.00;99.90;;;;;;5043986;28;20048;-63
2023/05/18 09:55:30;;;;;;;16.35;4.68;;;14.00;99.90;;;;;;5054210;28;20546;-63
2023/05/18 09:57:56;;;;;;;13.68;4.10;;;14.10;99.90;;;;;;5040864;28;20048;-64
2023/05/18 10:00:22;;;;;;;14.35;4.10;;;14.10;99.90;;;;;;5048343;28;20072;-63
2023/05/18 10:02:51;;;;;;;16.55;4.93;;;14.20;99.90;;;;;;5038585;28;20140;-64
2023/05/18 10:05:23;;;;;;;14.55;4.50;;;14.10;99.90;;;;;;5053406;28;20055;-63
2023/05/18 10:07:56;;;;;;;16.20;4.13;;;14.20;99.90;;;;;;5045767;28;20033;-64
2023/05/18 10:10:24;;;;;;;17.48;4.55;;;14.30;99.90;;;;;;5033537;28;20127;-63
2023/05/18 10:12:50;;;;;;;18.05;4.75;;;14.30;99.90;;;;;;5042997;28;20049;-63
2023/05/18 10:15:19;;;;;;;14.98;4.57;;;14.30;99.90;;;;;;5035681;28;20094;-63
2023/05/18 10:17:50;;;;;;;12.68;4.43;;;14.40;99.90;;;;;;5048067;28;20068;-63
2023/05/18 10:20:21;;;;;;;19.92;5.03;;;14.40;99.90;;;;;;5083214;28;20430;-63
2023/05/18 10:22:47;;;;;;;12.13;4.50;;;14.40;99.90;;;;;;5044502;28;20049;-62
2023/05/18 10:25:19;;;;;;;14.23;4.40;;;14.30;99.90;;;;;;5051740;28;20072;-63
2023/05/18 10:27:47;;;;;;;14.68;4.55;;;14.30;99.90;;;;;;5050912;28;20442;-63
2023/05/18 10:30:13;;;;;;;15.10;4.25;;;14.40;99.90;;;;;;5083755;28;20124;-65
2023/05/18 10:32:41;;;;;;;15.57;5.00;;;14.40;99.90;;;;;;5048006;28;20055;-64
2023/05/18 10:35:08;;;;;;;17.58;4.57;;;14.50;99.90;;;;;;5047065;28;20403;-63
2023/05/18 10:37:37;;;;;;;15.90;4.60;;;14.60;99.90;;;;;;5044295;28;20048;-64
2023/05/18 10:40:02;;;;;;;12.95;4.35;;;14.60;99.90;;;;;;5051102;28;20044;-65
2023/05/18 10:42:30;;;;;;;10.15;3.97;;;14.60;99.90;;;;;;5083564;28;20045;-62
2023/05/18 10:45:00;;;;;;;13.13;4.57;;;14.70;99.90;;;;;;5045379;28;20399;-64
2023/05/18 10:47:27;;;;;;;11.63;4.60;;;14.70;99.90;;;;;;5047087;28;20033;-63
2023/05/18 10:49:53;;;;;;;18.70;4.28;;;14.80;99.90;;;;;;5046683;28;20045;-63
2023/05/18 10:52:19;;;;;;;15.85;4.80;;;15.00;99.90;;;;;;5050060;28;20484;-62
2023/05/18 10:54:46;;;;;;;11.55;4.20;;;15.00;99.90;;;;;;5049675;28;20036;-61
2023/05/18 10:57:18;;;;;;;15.07;5.15;;;15.00;99.90;;;;;;5046398;28;20511;-61
2023/05/18 10:59:45;;;;;;;15.75;4.43;;;15.00;99.90;;;;;;5049245;28;20072;-62
2023/05/18 11:02:13;;;;;;;15.45;4.70;;;15.10;99.90;;;;;;5046782;28;20076;-61
2023/05/18 11:04:39;;;;;;;12.38;5.00;;;15.20;99.90;;;;;;5050889;28;20041;-61
2023/05/18 11:07:10;;;;;;;11.25;4.63;;;15.30;99.90;;;;;;5080669;28;20062;-61
2023/05/18 11:09:35;;;;;;;11.73;4.18;;;15.40;99.90;;;;;;5050278;28;20052;-61
2023/05/18 11:12:01;;;;;;;14.63;4.70;;;15.40;99.90;;;;;;5047044;28;20392;-62
2023/05/18 11:14:31;;;;;;;17.40;4.70;;;15.30;99.90;;;;;;5076181;28;20499;-61
2023/05/18 11:17:16;;;;;;;15.57;4.32;;;15.40;99.90;;;;;;5050796;28;20419;-61
2023/05/18 11:20:06;;;;;;;18.25;5.22;;;15.40;99.90;;;;;;5046289;28;20128;-63
2023/05/18 11:23:00;;;;;;;14.98;4.72;;;15.50;99.90;;;;;;5042871;28;20041;-63
2023/05/18 11:25:26;;;;;;;17.70;5.47;;;15.60;99.90;;;;;;5050029;28;20127;-61
2023/05/18 11:28:00;;;;;;;12.38;4.35;;;15.60;99.90;;;;;;5045470;28;20140;-63
2023/05/18 11:30:32;;;;;;;16.25;4.93;;;15.70;99.90;;;;;;5049631;28;20036;-64
2023/05/18 11:33:07;;;;;;;16.23;4.60;;;15.70;99.90;;;;;;5043267;28;20029;-61
2023/05/18 11:35:37;;;;;;;12.35;5.07;;;15.70;99.90;;;;;;5048623;28;20037;-62
2023/05/18 11:38:08;;;;;;;12.55;4.97;;;15.70;99.90;;;;;;5043926;28;20044;-63
2023/05/18 11:40:48;;;;;;;14.15;5.57;;;15.70;99.90;;;;;;5042496;28;20042;-62
2023/05/18 11:43:24;;;;;;;16.63;5.15;;;15.60;99.90;;;;;;5039868;28;20041;-62
2023/05/18 11:45:55;;;;;;;14.07;4.32;;;15.70;99.90;;;;;;5057019;28;20041;-62
2023/05/18 11:48:25;;;;;;;11.98;4.30;;;15.70;99.90;;;;;;5042235;28;20037;-62
2023/05/18 11:50:55;;;;;;;16.55;4.55;;;15.70;99.90;;;;;;5073931;28;20107;-61
2023/05/18 11:53:25;;;;;;;12.43;4.40;;;15.70;99.90;;;;;;5078747;28;20132;-61
2023/05/18 11:55:53;;;;;;;14.23;4.32;;;15.80;99.90;;;;;;5051107;28;20037;-62
2023/05/18 11:58:20;;;;;;;14.23;4.60;;;15.80;99.90;;;;;;5043926;28;20056;-62
2023/05/18 12:00:47;;;;;;;12.00;4.63;;;15.90;99.90;;;;;;5047910;28;20041;-62
2023/05/18 12:03:14;;;;;;;10.40;4.30;;;16.00;99.90;;;;;;5040700;28;20049;-61
2023/05/18 12:05:42;;;;;;;11.88;4.47;;;15.90;99.90;;;;;;5047186;28;20217;-61
2023/05/18 12:08:08;;;;;;;12.13;3.97;;;15.90;99.90;;;;;;5034135;28;20051;-62
2023/05/18 12:10:35;;;;;;;14.90;4.97;;;16.00;99.90;;;;;;5079973;28;20037;-63
2023/05/18 12:13:01;;;;;;;16.42;5.03;;;16.10;99.90;;;;;;5043169;28;20048;-63
2023/05/18 12:15:27;;;;;;;10.52;4.53;;;16.10;99.90;;;;;;5050390;28;20049;-61
2023/05/18 12:17:53;;;;;;;10.20;4.40;;;16.30;99.90;;;;;;5043872;28;20068;-62
2023/05/18 12:20:20;;;;;;;13.23;4.85;;;16.30;99.90;;;;;;5063370;28;20037;-62
2023/05/18 12:22:51;;;;;;;9.52;4.07;;;16.40;99.90;;;;;;5041076;28;20033;-63
2023/05/18 12:25:22;;;;;;;13.20;4.57;;;16.40;99.90;;;;;;5046924;28;20191;-62
2023/05/18 12:27:50;;;;;;;12.32;4.18;;;16.30;99.90;;;;;;5043531;28;20060;-63
2023/05/18 12:30:18;;;;;;;13.30;4.50;;;16.40;99.90;;;;;;5049231;28;20396;-62
2023/05/18 12:32:51;;;;;;;12.27;4.40;;;16.40;99.90;;;;;;5040288;28;20041;-62
2023/05/18 12:35:24;;;;;;;14.90;4.82;;;16.50;99.90;;;;;;5047000;28;20380;-63
2023/05/18 12:37:50;;;;;;;11.48;5.40;;;16.50;99.90;;;;;;5040385;28;20052;-62
2023/05/18 12:40:18;;;;;;;11.77;4.63;;;16.50;99.90;;;;;;5046999;28;20037;-63
2023/05/18 12:42:54;;;;;;;16.58;4.80;;;16.60;99.90;;;;;;5044220;28;20060;-62
2023/05/18 12:45:26;;;;;;;12.90;5.57;;;16.60;99.90;;;;;;5044124;28;20056;-62